createdAt,value
2022-08-18T00:00:30.828Z,471
2022-08-18T00:01:22.719Z,460
2022-08-18T00:02:14.621Z,456
2022-08-18T00:03:15.859Z,450
2022-08-18T00:03:59.633Z,454
2022-08-18T00:04:50.240Z,458
2022-08-18T00:05:42.121Z,448
2022-08-18T00:06:34.004Z,450
2022-08-18T00:07:25.817Z,446
2022-08-18T00:08:17.754Z,446
2022-08-18T00:09:09.641Z,440
2022-08-18T00:10:01.558Z,433
2022-08-18T00:10:53.400Z,435
2022-08-18T00:11:45.276Z,430
2022-08-18T00:12:37.160Z,439
2022-08-18T00:13:29.042Z,450
2022-08-18T00:14:22.117Z,456
2022-08-18T00:15:12.801Z,434
2022-08-18T00:16:04.627Z,468
2022-08-18T00:16:56.557Z,671
2022-08-18T00:17:48.436Z,598
2022-08-18T00:18:40.319Z,524
2022-08-18T00:19:46.544Z,503
2022-08-18T00:20:24.083Z,477
2022-08-18T00:21:15.943Z,463
2022-08-18T00:22:07.849Z,469
2022-08-18T00:22:59.715Z,465
2022-08-18T00:23:51.598Z,464
2022-08-18T00:24:48.551Z,470
2022-08-18T00:25:35.273Z,457
2022-08-18T00:26:27.209Z,443
2022-08-18T00:27:19.091Z,442
2022-08-18T00:28:10.960Z,431
2022-08-18T00:29:02.850Z,457
2022-08-18T00:29:54.641Z,448
2022-08-18T00:30:46.611Z,449
2022-08-18T00:31:38.484Z,449
2022-08-18T00:32:30.360Z,431
2022-08-18T00:33:22.240Z,424
2022-08-18T00:34:14.142Z,447
2022-08-18T00:35:05.965Z,436
2022-08-18T00:35:57.857Z,450
2022-08-18T00:36:49.712Z,451
2022-08-18T00:37:41.624Z,456
2022-08-18T00:38:33.488Z,440
2022-08-18T00:39:25.365Z,442
2022-08-18T00:40:17.333Z,448
2022-08-18T00:41:09.112Z,446
2022-08-18T00:42:00.975Z,441
2022-08-18T00:42:53.116Z,442
2022-08-18T00:43:44.636Z,458
2022-08-18T00:44:36.599Z,456
2022-08-18T00:45:28.471Z,452
2022-08-18T00:46:20.367Z,446
2022-08-18T00:47:12.219Z,456
2022-08-18T00:48:04.103Z,545
2022-08-18T00:48:55.984Z,523
2022-08-18T00:49:47.769Z,490
2022-08-18T00:50:39.720Z,487
2022-08-18T00:51:31.596Z,519
2022-08-18T00:52:23.454Z,495
2022-08-18T00:53:15.324Z,521
2022-08-18T00:54:07.213Z,540
2022-08-18T00:54:59.091Z,630
2022-08-18T00:55:54.334Z,616
2022-08-18T00:56:42.824Z,579
2022-08-18T00:57:34.603Z,549
2022-08-18T00:58:26.564Z,564
2022-08-18T00:59:18.442Z,591
2022-08-18T01:00:10.315Z,576
2022-08-18T01:01:02.250Z,565
2022-08-18T01:01:54.056Z,567
2022-08-18T01:02:45.911Z,564
2022-08-18T01:03:37.803Z,543
2022-08-18T01:04:29.643Z,554
2022-08-18T01:05:21.527Z,537
2022-08-18T01:06:13.381Z,538
2022-08-18T01:07:05.256Z,505
2022-08-18T01:07:57.111Z,513
2022-08-18T01:08:48.982Z,506
2022-08-18T01:09:40.840Z,498
2022-08-18T01:10:32.714Z,511
2022-08-18T01:11:24.486Z,500
2022-08-18T01:12:44.301Z,505
2022-08-18T01:13:08.290Z,471
2022-08-18T01:14:00.173Z,494
2022-08-18T01:14:52.015Z,497
2022-08-18T01:15:43.878Z,594
2022-08-18T01:16:35.735Z,583
2022-08-18T01:17:27.620Z,534
2022-08-18T01:18:19.463Z,562
2022-08-18T01:19:11.334Z,587
2022-08-18T01:20:03.188Z,600
2022-08-18T01:20:55.004Z,584
2022-08-18T01:21:46.895Z,544
2022-08-18T01:22:38.783Z,562
2022-08-18T01:23:30.627Z,542
2022-08-18T01:24:22.500Z,523
2022-08-18T01:25:14.404Z,526
2022-08-18T01:26:06.218Z,514
2022-08-18T01:26:58.061Z,534
2022-08-18T01:27:50.061Z,523
2022-08-18T01:28:41.791Z,516
2022-08-18T01:29:33.662Z,511
2022-08-18T01:30:25.505Z,492
2022-08-18T01:31:17.412Z,503
2022-08-18T01:32:09.237Z,507
2022-08-18T01:33:01.125Z,482
2022-08-18T01:33:52.967Z,489
2022-08-18T01:34:44.787Z,511
2022-08-18T01:35:41.718Z,488
2022-08-18T01:36:28.575Z,478
2022-08-18T01:37:20.433Z,471
2022-08-18T01:38:12.304Z,464
2022-08-18T01:39:04.218Z,461
2022-08-18T01:41:22.006Z,472
2022-08-18T01:41:22.150Z,482
2022-08-18T01:41:39.792Z,462
2022-08-18T01:42:31.617Z,493
2022-08-18T01:43:23.512Z,478
2022-08-18T01:44:15.350Z,489
2022-08-18T01:45:07.235Z,528
2022-08-18T01:45:59.078Z,656
2022-08-18T01:46:50.970Z,792
2022-08-18T01:47:47.327Z,715
2022-08-18T01:48:34.620Z,651
2022-08-18T01:49:26.538Z,631
2022-08-18T01:50:18.443Z,584
2022-08-18T01:51:10.262Z,578
2022-08-18T01:52:02.152Z,573
2022-08-18T01:52:54.009Z,560
2022-08-18T01:53:45.881Z,537
2022-08-18T01:54:37.727Z,523
2022-08-18T01:55:29.614Z,525
2022-08-18T01:56:21.462Z,553
2022-08-18T01:57:13.356Z,531
2022-08-18T01:58:05.115Z,529
2022-08-18T01:58:57.077Z,523
2022-08-18T01:59:48.931Z,510
2022-08-18T02:00:40.802Z,490
2022-08-18T02:01:36.335Z,501
2022-08-18T02:02:24.614Z,612
2022-08-18T02:03:16.384Z,757
2022-08-18T02:04:33.967Z,798
2022-08-18T02:05:00.132Z,772
2022-08-18T02:05:52.005Z,679
2022-08-18T02:06:47.816Z,654
2022-08-18T02:07:35.976Z,583
2022-08-18T02:08:28.197Z,562
2022-08-18T02:09:24.212Z,547
2022-08-18T02:10:11.853Z,569
2022-08-18T02:11:03.200Z,555
2022-08-18T02:11:56.052Z,546
2022-08-18T02:12:46.923Z,535
2022-08-18T02:13:38.768Z,519
2022-08-18T02:14:31.148Z,531
2022-08-18T02:15:22.607Z,538
2022-08-18T02:16:14.379Z,535
2022-08-18T02:17:06.275Z,526
2022-08-18T02:17:58.126Z,519
2022-08-18T02:18:49.962Z,567
2022-08-18T02:19:41.840Z,1036
2022-08-18T02:20:33.689Z,828
2022-08-18T02:21:25.582Z,820
2022-08-18T02:22:17.428Z,753
2022-08-18T02:23:09.299Z,679
2022-08-18T02:24:01.145Z,650
2022-08-18T02:24:53.029Z,638
2022-08-18T02:25:44.899Z,628
2022-08-18T02:26:36.741Z,618
2022-08-18T02:27:28.606Z,591
2022-08-18T02:28:20.480Z,586
2022-08-18T02:29:12.333Z,583
2022-08-18T02:30:04.204Z,570
2022-08-18T02:30:56.051Z,542
2022-08-18T02:31:47.861Z,532
2022-08-18T02:32:39.793Z,523
2022-08-18T02:33:31.683Z,504
2022-08-18T02:34:23.517Z,553
2022-08-18T02:35:15.393Z,556
2022-08-18T02:36:07.234Z,612
2022-08-18T02:36:59.171Z,623
2022-08-18T02:37:51.333Z,653
2022-08-18T02:38:42.872Z,655
2022-08-18T02:39:34.730Z,670
2022-08-18T02:40:26.614Z,600
2022-08-18T02:41:18.459Z,586
2022-08-18T02:42:10.331Z,606
2022-08-18T02:43:02.203Z,587
2022-08-18T02:43:54.083Z,582
2022-08-18T02:44:45.931Z,579
2022-08-18T02:45:37.804Z,562
2022-08-18T02:46:31.241Z,531
2022-08-18T02:47:21.547Z,536
2022-08-18T02:48:13.381Z,522
2022-08-18T02:49:05.190Z,505
2022-08-18T02:49:57.113Z,508
2022-08-18T02:50:49.019Z,523
2022-08-18T02:51:40.973Z,493
2022-08-18T02:52:32.770Z,491
2022-08-18T02:53:24.577Z,515
2022-08-18T02:54:16.470Z,513
2022-08-18T02:55:08.281Z,491
2022-08-18T02:56:00.155Z,479
2022-08-18T02:56:52.006Z,472
2022-08-18T02:57:43.870Z,469
2022-08-18T02:58:35.722Z,475
2022-08-18T02:59:27.670Z,475
2022-08-18T03:00:19.444Z,539
2022-08-18T03:01:11.393Z,583
2022-08-18T03:02:03.161Z,668
2022-08-18T03:02:55.009Z,628
2022-08-18T03:03:46.880Z,602
2022-08-18T03:04:38.756Z,578
2022-08-18T03:05:30.607Z,599
2022-08-18T03:06:22.497Z,623
2022-08-18T03:07:14.344Z,610
2022-08-18T03:08:06.222Z,614
2022-08-18T03:08:58.056Z,575
2022-08-18T03:09:49.920Z,567
2022-08-18T03:10:41.789Z,579
2022-08-18T03:11:33.658Z,557
2022-08-18T03:12:25.458Z,533
2022-08-18T03:13:17.386Z,530
2022-08-18T03:14:11.544Z,537
2022-08-18T03:15:01.110Z,514
2022-08-18T03:15:56.723Z,518
2022-08-18T03:16:52.855Z,512
2022-08-18T03:17:36.696Z,509
2022-08-18T03:18:28.566Z,505
2022-08-18T03:19:20.591Z,496
2022-08-18T03:20:12.296Z,523
2022-08-18T03:21:04.143Z,485
2022-08-18T03:21:57.255Z,519
2022-08-18T03:22:47.854Z,527
2022-08-18T03:23:39.762Z,499
2022-08-18T03:24:32.182Z,483
2022-08-18T03:25:23.465Z,488
2022-08-18T03:26:15.292Z,480
2022-08-18T03:27:07.194Z,474
2022-08-18T03:27:59.031Z,487
2022-08-18T03:28:50.909Z,489
2022-08-18T03:29:42.754Z,506
2022-08-18T03:30:34.636Z,499
2022-08-18T03:31:27.844Z,514
2022-08-18T03:32:18.364Z,511
2022-08-18T03:33:10.235Z,498
2022-08-18T03:34:02.086Z,488
2022-08-18T03:34:53.926Z,511
2022-08-18T03:35:45.799Z,507
2022-08-18T03:36:37.649Z,497
2022-08-18T03:37:29.517Z,540
2022-08-18T03:38:21.381Z,632
2022-08-18T03:39:13.246Z,660
2022-08-18T03:40:05.095Z,632
2022-08-18T03:40:56.976Z,608
2022-08-18T03:41:59.772Z,604
2022-08-18T03:42:40.692Z,567
2022-08-18T03:43:51.118Z,610
2022-08-18T03:44:24.410Z,664
2022-08-18T03:45:17.691Z,794
2022-08-18T03:46:08.191Z,617
2022-08-18T03:47:00.009Z,540
2022-08-18T03:47:52.077Z,526
2022-08-18T03:48:43.720Z,618
2022-08-18T03:49:35.600Z,651
2022-08-18T03:50:27.450Z,670
2022-08-18T03:51:19.304Z,641
2022-08-18T03:52:11.159Z,623
2022-08-18T03:53:03.027Z,615
2022-08-18T03:53:54.803Z,836
2022-08-18T03:54:46.748Z,1122
2022-08-18T03:55:38.606Z,983
2022-08-18T03:56:30.464Z,888
2022-08-18T03:57:22.318Z,792
2022-08-18T03:58:14.191Z,684
2022-08-18T03:59:06.035Z,697
2022-08-18T03:59:57.931Z,674
2022-08-18T04:00:49.757Z,667
2022-08-18T04:01:41.657Z,633
2022-08-18T04:02:33.463Z,626
2022-08-18T04:03:25.352Z,595
2022-08-18T04:04:17.188Z,595
2022-08-18T04:05:09.060Z,576
2022-08-18T04:06:00.906Z,577
2022-08-18T04:06:52.783Z,567
2022-08-18T04:07:44.750Z,542
2022-08-18T04:08:36.488Z,550
2022-08-18T04:09:28.449Z,550
2022-08-18T04:10:20.214Z,538
2022-08-18T04:11:12.054Z,527
2022-08-18T04:12:03.898Z,711
2022-08-18T04:12:55.759Z,905
2022-08-18T04:13:47.591Z,897
2022-08-18T04:14:39.439Z,814
2022-08-18T04:15:31.303Z,660
2022-08-18T04:16:23.146Z,660
2022-08-18T04:17:14.899Z,643
2022-08-18T04:18:07.069Z,613
2022-08-18T04:18:59.298Z,596
2022-08-18T04:19:50.550Z,565
2022-08-18T04:20:58.936Z,574
2022-08-18T04:21:34.242Z,560
2022-08-18T04:22:26.101Z,528
2022-08-18T04:23:17.938Z,526
2022-08-18T04:24:09.801Z,516
2022-08-18T04:25:01.639Z,528
2022-08-18T04:25:53.463Z,525
2022-08-18T04:26:45.277Z,508
2022-08-18T04:27:37.208Z,521
2022-08-18T04:28:29.038Z,548
2022-08-18T04:29:20.920Z,556
2022-08-18T04:30:12.750Z,611
2022-08-18T04:31:04.609Z,584
2022-08-18T04:31:56.455Z,561
2022-08-18T04:32:48.245Z,533
2022-08-18T04:33:40.165Z,503
2022-08-18T04:34:32.001Z,511
2022-08-18T04:35:23.842Z,554
2022-08-18T04:36:20.624Z,864
2022-08-18T04:37:07.534Z,749
2022-08-18T04:37:59.389Z,665
2022-08-18T04:38:51.233Z,647
2022-08-18T04:39:43.155Z,628
2022-08-18T04:40:34.869Z,624
2022-08-18T04:41:26.783Z,606
2022-08-18T04:42:18.658Z,603
2022-08-18T04:43:10.490Z,581
2022-08-18T04:44:02.319Z,617
2022-08-18T04:44:54.195Z,632
2022-08-18T04:45:46.031Z,654
2022-08-18T04:46:37.892Z,621
2022-08-18T04:47:29.730Z,585
2022-08-18T04:48:22.747Z,574
2022-08-18T04:49:13.447Z,579
2022-08-18T04:50:05.344Z,575
2022-08-18T04:50:57.180Z,587
2022-08-18T04:52:26.949Z,559
2022-08-18T04:52:41.730Z,548
2022-08-18T04:53:32.705Z,549
2022-08-18T04:54:24.538Z,539
2022-08-18T04:55:16.397Z,651
2022-08-18T04:56:08.234Z,987
2022-08-18T04:57:00.122Z,971
2022-08-18T04:57:52.059Z,796
2022-08-18T04:58:43.770Z,647
2022-08-18T04:59:35.591Z,624
2022-08-18T05:00:27.474Z,675
2022-08-18T05:01:19.379Z,999
2022-08-18T05:02:14.645Z,780
2022-08-18T05:03:02.993Z,729
2022-08-18T05:03:54.880Z,798
2022-08-18T05:04:46.687Z,665
2022-08-18T05:05:38.560Z,623
2022-08-18T05:06:30.402Z,573
2022-08-18T05:07:22.259Z,550
2022-08-18T05:08:14.106Z,589
2022-08-18T05:09:06.088Z,608
2022-08-18T05:09:57.793Z,594
2022-08-18T05:10:49.658Z,598
2022-08-18T05:11:41.503Z,593
2022-08-18T05:12:33.360Z,573
2022-08-18T05:13:25.130Z,567
2022-08-18T05:14:17.067Z,548
2022-08-18T05:15:08.889Z,517
2022-08-18T05:16:10.781Z,551
2022-08-18T05:16:52.590Z,533
2022-08-18T05:17:44.485Z,539
2022-08-18T05:18:36.288Z,522
2022-08-18T05:19:28.170Z,528
2022-08-18T05:20:20.009Z,525
2022-08-18T05:21:11.863Z,494
2022-08-18T05:22:03.732Z,478
2022-08-18T05:22:55.499Z,488
2022-08-18T05:23:47.388Z,505
2022-08-18T05:24:39.264Z,503
2022-08-18T05:25:31.090Z,506
2022-08-18T05:26:22.951Z,491
2022-08-18T05:27:14.803Z,489
2022-08-18T05:28:06.667Z,498
2022-08-18T05:29:17.857Z,490
2022-08-18T05:29:51.803Z,492
2022-08-18T05:30:42.223Z,486
2022-08-18T05:31:34.073Z,497
2022-08-18T05:32:41.113Z,481
2022-08-18T05:33:17.782Z,488
2022-08-18T05:34:09.636Z,474
2022-08-18T05:35:01.472Z,478
2022-08-18T05:35:53.237Z,478
2022-08-18T05:36:45.090Z,618
2022-08-18T05:37:37.020Z,687
2022-08-18T05:38:28.892Z,686
2022-08-18T05:39:20.710Z,672
2022-08-18T05:40:12.684Z,656
2022-08-18T05:41:04.445Z,665
2022-08-18T05:41:56.301Z,673
2022-08-18T05:42:48.115Z,647
2022-08-18T05:43:40.739Z,624
2022-08-18T05:44:31.850Z,578
2022-08-18T05:45:23.701Z,578
2022-08-18T05:46:15.509Z,571
2022-08-18T05:47:07.402Z,563
2022-08-18T05:47:59.229Z,540
2022-08-18T05:48:51.092Z,536
2022-08-18T05:49:42.917Z,516
2022-08-18T05:50:34.768Z,518
2022-08-18T05:51:26.621Z,541
2022-08-18T05:52:18.475Z,542
2022-08-18T05:53:13.811Z,594
2022-08-18T05:54:02.153Z,603
2022-08-18T05:54:53.995Z,625
2022-08-18T05:55:47.909Z,606
2022-08-18T05:56:37.670Z,570
2022-08-18T05:57:29.529Z,535
2022-08-18T05:58:21.362Z,538
2022-08-18T05:59:13.212Z,533
2022-08-18T06:00:04.989Z,535
2022-08-18T06:01:00.098Z,527
2022-08-18T06:01:48.635Z,526
2022-08-18T06:02:40.619Z,544
2022-08-18T06:03:45.547Z,520
2022-08-18T06:04:24.265Z,524
2022-08-18T06:05:16.090Z,501
2022-08-18T06:06:07.965Z,511
2022-08-18T06:06:59.767Z,521
2022-08-18T06:07:51.767Z,510
2022-08-18T06:08:43.467Z,508
2022-08-18T06:09:35.261Z,505
2022-08-18T06:10:27.257Z,506
2022-08-18T06:11:22.465Z,498
2022-08-18T06:12:10.866Z,501
2022-08-18T06:13:02.724Z,507
2022-08-18T06:14:00.059Z,495
2022-08-18T06:14:46.409Z,498
2022-08-18T06:15:39.756Z,504
2022-08-18T06:16:30.102Z,508
2022-08-18T06:17:21.940Z,490
2022-08-18T06:18:13.800Z,497
2022-08-18T06:19:05.558Z,483
2022-08-18T06:19:57.483Z,495
2022-08-18T06:20:49.316Z,490
2022-08-18T06:21:41.186Z,493
2022-08-18T06:22:32.995Z,492
2022-08-18T06:23:24.856Z,462
2022-08-18T06:24:16.688Z,472
2022-08-18T06:25:08.576Z,500
2022-08-18T06:26:00.398Z,469
2022-08-18T06:26:52.239Z,479
2022-08-18T06:27:44.052Z,484
2022-08-18T06:28:35.917Z,476
2022-08-18T06:29:27.745Z,466
2022-08-18T06:30:19.596Z,477
2022-08-18T06:31:11.511Z,480
2022-08-18T06:32:03.307Z,501
2022-08-18T06:32:55.080Z,605
2022-08-18T06:33:46.966Z,1259
2022-08-18T06:34:38.805Z,1285
2022-08-18T06:35:30.668Z,876
2022-08-18T06:36:22.503Z,683
2022-08-18T06:37:14.348Z,663
2022-08-18T06:38:06.169Z,645
2022-08-18T06:38:58.032Z,647
2022-08-18T06:39:49.940Z,613
2022-08-18T06:40:41.715Z,601
2022-08-18T06:41:42.925Z,584
2022-08-18T06:42:25.334Z,591
2022-08-18T06:43:17.239Z,561
2022-08-18T06:44:09.082Z,548
2022-08-18T06:45:00.928Z,536
2022-08-18T06:45:52.768Z,529
2022-08-18T06:46:44.600Z,542
2022-08-18T06:47:36.466Z,1050
2022-08-18T06:48:28.279Z,1432
2022-08-18T06:49:20.132Z,1285
2022-08-18T06:50:11.969Z,1251
2022-08-18T06:51:03.817Z,1025
2022-08-18T06:51:55.648Z,967
2022-08-18T06:52:47.497Z,923
2022-08-18T06:53:39.322Z,721
2022-08-18T06:54:31.186Z,683
2022-08-18T06:55:23.005Z,658
2022-08-18T06:56:25.751Z,643
2022-08-18T06:57:06.710Z,631
2022-08-18T06:57:58.548Z,575
2022-08-18T06:58:53.200Z,587
2022-08-18T06:59:42.229Z,560
2022-08-18T07:00:34.128Z,558
2022-08-18T07:01:25.934Z,584
2022-08-18T07:02:17.722Z,571
2022-08-18T07:03:09.587Z,532
2022-08-18T07:04:01.405Z,533
2022-08-18T07:04:53.276Z,531
2022-08-18T07:05:45.110Z,526
2022-08-18T07:06:36.940Z,505
2022-08-18T07:07:28.767Z,477
2022-08-18T07:08:20.622Z,481
2022-08-18T07:09:12.448Z,494
2022-08-18T07:10:04.315Z,503
2022-08-18T07:10:56.160Z,487
2022-08-18T07:11:47.973Z,478
2022-08-18T07:12:39.825Z,504
2022-08-18T07:13:31.660Z,490
2022-08-18T07:14:23.488Z,485
2022-08-18T07:15:15.278Z,471
2022-08-18T07:16:07.186Z,493
2022-08-18T07:16:59.818Z,478
2022-08-18T07:17:50.855Z,476
2022-08-18T07:18:42.707Z,481
2022-08-18T07:19:34.538Z,462
2022-08-18T07:20:26.386Z,685
2022-08-18T07:21:18.232Z,1005
2022-08-18T07:22:10.067Z,743
2022-08-18T07:23:01.895Z,685
2022-08-18T07:24:14.107Z,689
2022-08-18T07:24:45.565Z,686
2022-08-18T07:25:37.426Z,687
2022-08-18T07:26:29.265Z,658
2022-08-18T07:27:21.112Z,617
2022-08-18T07:28:12.940Z,616
2022-08-18T07:29:04.791Z,584
2022-08-18T07:29:56.631Z,564
2022-08-18T07:31:13.515Z,563
2022-08-18T07:31:40.294Z,537
2022-08-18T07:32:32.172Z,546
2022-08-18T07:33:24.023Z,547
2022-08-18T07:34:15.852Z,539
2022-08-18T07:35:07.656Z,544
2022-08-18T07:35:59.504Z,528
2022-08-18T07:36:51.346Z,522
2022-08-18T07:37:43.185Z,519
2022-08-18T07:38:43.113Z,3020
2022-08-18T07:39:26.981Z,2136
2022-08-18T07:40:18.790Z,1745
2022-08-18T07:41:10.561Z,1302
2022-08-18T07:42:02.399Z,1032
2022-08-18T07:43:01.261Z,963
2022-08-18T07:43:46.065Z,838
2022-08-18T07:44:37.919Z,824
2022-08-18T07:45:29.763Z,681
2022-08-18T07:46:21.619Z,696
2022-08-18T07:47:13.435Z,670
2022-08-18T07:48:15.904Z,693
2022-08-18T07:48:57.025Z,666
2022-08-18T07:50:15.599Z,632
2022-08-18T07:50:58.485Z,606
2022-08-18T07:51:33.927Z,695
2022-08-18T07:52:36.175Z,977
2022-08-18T07:53:16.386Z,755
2022-08-18T07:54:20.098Z,692
2022-08-18T07:55:00.080Z,638
2022-08-18T07:55:51.907Z,639
2022-08-18T07:56:43.754Z,652
2022-08-18T07:57:42.404Z,637
2022-08-18T07:58:27.450Z,665
2022-08-18T07:59:19.287Z,689
2022-08-18T08:00:17.368Z,657
2022-08-18T08:01:02.973Z,639
2022-08-18T08:01:54.890Z,652
2022-08-18T08:02:50.067Z,631
2022-08-18T08:03:38.542Z,643
2022-08-18T08:04:30.377Z,626
2022-08-18T08:05:22.251Z,629
2022-08-18T08:06:14.118Z,643
2022-08-18T08:07:24.049Z,614
2022-08-18T08:07:57.798Z,625
2022-08-18T08:08:49.660Z,604
2022-08-18T08:09:41.506Z,607
2022-08-18T08:10:33.370Z,573
2022-08-18T08:11:25.227Z,589
2022-08-18T08:12:17.086Z,598
2022-08-18T08:13:09.891Z,600
2022-08-18T08:14:00.805Z,589
2022-08-18T08:14:52.672Z,621
2022-08-18T08:15:44.511Z,621
2022-08-18T08:16:36.363Z,615
2022-08-18T08:17:28.230Z,647
2022-08-18T08:18:20.070Z,624
2022-08-18T08:19:12.698Z,622
2022-08-18T08:20:03.739Z,641
2022-08-18T08:20:55.618Z,663
2022-08-18T08:21:52.645Z,649
2022-08-18T08:22:39.406Z,599
2022-08-18T08:23:31.273Z,579
2022-08-18T08:24:23.152Z,584
2022-08-18T08:25:44.429Z,592
2022-08-18T08:26:06.863Z,609
2022-08-18T08:26:58.717Z,602
2022-08-18T08:27:50.761Z,601
2022-08-18T08:28:42.441Z,578
2022-08-18T08:29:34.327Z,577
2022-08-18T08:30:26.622Z,575
2022-08-18T08:32:09.900Z,579
2022-08-18T08:33:01.789Z,568
2022-08-18T08:33:53.626Z,604
2022-08-18T08:34:45.446Z,594
2022-08-18T08:35:50.105Z,576
2022-08-18T08:36:29.213Z,583
2022-08-18T08:37:21.058Z,556
2022-08-18T08:38:39.555Z,548
2022-08-18T08:39:04.775Z,578
2022-08-18T08:39:56.674Z,588
2022-08-18T08:40:48.472Z,558
2022-08-18T08:41:40.379Z,526
2022-08-18T08:42:34.468Z,576
2022-08-18T08:43:24.089Z,578
2022-08-18T08:44:15.931Z,892
2022-08-18T08:45:07.828Z,1566
2022-08-18T08:45:59.648Z,1229
2022-08-18T08:46:51.526Z,1245
2022-08-18T08:47:43.385Z,1602
2022-08-18T08:48:35.236Z,1872
2022-08-18T08:49:27.098Z,2589
2022-08-18T08:50:19.057Z,2563
2022-08-18T08:51:10.846Z,2210
2022-08-18T08:52:02.712Z,2043
2022-08-18T08:52:57.167Z,2224
2022-08-18T08:53:46.423Z,1999
2022-08-18T08:54:38.279Z,2482
2022-08-18T08:55:30.155Z,2386
2022-08-18T08:56:21.999Z,2353
2022-08-18T08:57:13.883Z,2454
2022-08-18T08:58:05.660Z,2043
2022-08-18T08:58:57.614Z,2041
2022-08-18T08:59:49.473Z,1799
2022-08-18T09:00:41.357Z,1489
2022-08-18T09:01:33.251Z,1406
2022-08-18T09:02:46.884Z,1495
2022-08-18T09:03:16.926Z,1396
2022-08-18T09:04:08.813Z,1237
2022-08-18T09:05:08.733Z,1293
2022-08-18T09:05:56.649Z,1134
2022-08-18T09:06:44.395Z,1142
2022-08-18T09:07:38.501Z,1023
2022-08-18T09:08:28.130Z,1120
2022-08-18T09:09:20.002Z,969
2022-08-18T09:10:11.885Z,755
2022-08-18T09:11:03.728Z,688
2022-08-18T09:11:55.506Z,662
2022-08-18T09:12:47.594Z,686
2022-08-18T09:13:39.309Z,840
2022-08-18T09:14:31.186Z,864
2022-08-18T09:15:23.032Z,886
2022-08-18T09:16:14.926Z,691
2022-08-18T09:17:06.771Z,741
2022-08-18T09:17:58.642Z,991
2022-08-18T09:18:50.487Z,1048
2022-08-18T09:19:42.377Z,931
2022-08-18T09:20:34.228Z,725
2022-08-18T09:21:26.108Z,737
2022-08-18T09:22:17.967Z,684
2022-08-18T09:23:09.828Z,634
2022-08-18T09:24:01.682Z,625
2022-08-18T09:24:53.566Z,634
2022-08-18T09:25:45.377Z,674
2022-08-18T09:26:39.187Z,860
2022-08-18T09:27:29.150Z,1054
2022-08-18T09:28:21.039Z,969
2022-08-18T09:29:12.906Z,794
2022-08-18T09:30:04.791Z,662
2022-08-18T09:30:56.651Z,613
2022-08-18T09:31:48.552Z,611
2022-08-18T09:32:40.392Z,604
2022-08-18T09:33:32.256Z,612
2022-08-18T09:34:24.416Z,2081
2022-08-18T09:35:15.913Z,2684
2022-08-18T09:36:10.187Z,2893
2022-08-18T09:36:59.748Z,3051
2022-08-18T09:37:51.603Z,2535
2022-08-18T09:38:43.483Z,2571
2022-08-18T09:39:35.413Z,1789
2022-08-18T09:40:51.320Z,1493
2022-08-18T09:41:19.141Z,1884
2022-08-18T09:42:10.971Z,1838
2022-08-18T09:43:03.070Z,1590
2022-08-18T09:43:54.713Z,1388
2022-08-18T09:44:46.583Z,1249
2022-08-18T09:45:38.456Z,1122
2022-08-18T09:46:30.316Z,1029
2022-08-18T09:47:22.340Z,862
2022-08-18T09:48:20.688Z,1142
2022-08-18T09:49:05.876Z,1038
2022-08-18T09:49:57.809Z,666
2022-08-18T09:50:49.700Z,610
2022-08-18T09:51:41.557Z,615
2022-08-18T09:52:33.444Z,927
2022-08-18T09:53:25.301Z,943
2022-08-18T09:54:20.759Z,753
2022-08-18T09:55:09.051Z,696
2022-08-18T09:56:05.250Z,673
2022-08-18T09:56:53.807Z,621
2022-08-18T09:57:44.667Z,591
2022-08-18T09:58:36.523Z,587
2022-08-18T09:59:28.440Z,623
2022-08-18T10:00:24.313Z,638
2022-08-18T10:01:12.329Z,645
2022-08-18T10:02:04.061Z,638
2022-08-18T10:02:56.069Z,636
2022-08-18T10:03:47.784Z,653
2022-08-18T10:04:39.656Z,646
2022-08-18T10:05:31.538Z,616
2022-08-18T10:06:26.959Z,566
2022-08-18T10:07:15.273Z,568
2022-08-18T10:08:07.181Z,564
2022-08-18T10:08:59.027Z,569
2022-08-18T10:09:50.910Z,575
2022-08-18T10:10:59.251Z,552
2022-08-18T10:11:34.674Z,554
2022-08-18T10:12:27.287Z,554
2022-08-18T10:13:18.451Z,598
2022-08-18T10:14:10.298Z,608
2022-08-18T10:15:02.195Z,624
2022-08-18T10:15:54.096Z,604
2022-08-18T10:17:13.167Z,578
2022-08-18T10:17:37.805Z,572
2022-08-18T10:18:29.689Z,547
2022-08-18T10:19:32.286Z,546
2022-08-18T10:20:25.684Z,530
2022-08-18T10:21:05.329Z,533
2022-08-18T10:21:57.199Z,528
2022-08-18T10:22:49.030Z,534
2022-08-18T10:23:47.245Z,539
2022-08-18T10:24:36.556Z,553
2022-08-18T10:25:24.702Z,541
2022-08-18T10:26:16.579Z,539
2022-08-18T10:27:08.480Z,513
2022-08-18T10:28:00.341Z,494
2022-08-18T10:28:52.240Z,497
2022-08-18T10:29:44.094Z,503
2022-08-18T10:30:56.303Z,499
2022-08-18T10:31:27.863Z,540
2022-08-18T10:32:19.737Z,541
2022-08-18T10:33:18.333Z,544
2022-08-18T10:34:16.038Z,539
2022-08-18T10:34:55.393Z,558
2022-08-18T10:35:47.269Z,565
2022-08-18T10:36:40.084Z,549
2022-08-18T10:37:31.019Z,590
2022-08-18T10:38:22.918Z,576
2022-08-18T10:39:14.786Z,605
2022-08-18T10:40:06.735Z,729
2022-08-18T10:40:58.533Z,812
2022-08-18T10:41:50.397Z,709
2022-08-18T10:42:42.279Z,768
2022-08-18T10:44:29.530Z,650
2022-08-18T10:45:22.105Z,609
2022-08-18T10:47:01.656Z,595
2022-08-18T10:47:53.534Z,608
2022-08-18T10:48:45.493Z,566
2022-08-18T10:49:37.295Z,555
2022-08-18T10:50:29.164Z,516
2022-08-18T10:51:21.323Z,500
2022-08-18T10:52:12.918Z,505
2022-08-18T10:53:35.046Z,518
2022-08-18T10:53:56.665Z,558
2022-08-18T10:54:51.999Z,586
2022-08-18T10:55:50.292Z,596
2022-08-18T10:56:32.320Z,572
2022-08-18T10:57:24.182Z,567
2022-08-18T10:58:15.998Z,530
2022-08-18T10:59:07.932Z,521
2022-08-18T10:59:59.820Z,523
2022-08-18T11:00:51.726Z,502
2022-08-18T11:01:43.788Z,532
2022-08-18T11:02:37.007Z,555
2022-08-18T11:03:51.115Z,561
2022-08-18T11:04:34.771Z,515
2022-08-18T11:05:11.103Z,525
2022-08-18T11:06:02.972Z,529
2022-08-18T11:06:54.858Z,522
2022-08-18T11:07:46.734Z,541
2022-08-18T11:08:38.650Z,530
2022-08-18T11:09:30.484Z,537
2022-08-18T11:10:30.299Z,556
2022-08-18T11:11:38.913Z,551
2022-08-18T11:12:06.069Z,544
2022-08-18T11:12:58.394Z,543
2022-08-18T11:13:49.916Z,538
2022-08-18T11:14:41.777Z,518
2022-08-18T11:15:38.827Z,501
2022-08-18T11:16:25.546Z,521
2022-08-18T11:17:17.431Z,507
2022-08-18T11:18:10.420Z,504
2022-08-18T11:19:01.218Z,495
2022-08-18T11:19:53.062Z,493
2022-08-18T11:20:47.258Z,483
2022-08-18T11:21:41.761Z,497
2022-08-18T11:22:31.482Z,490
2022-08-18T11:23:20.612Z,523
2022-08-18T11:24:13.485Z,525
2022-08-18T11:25:04.369Z,534
2022-08-18T11:25:56.223Z,518
2022-08-18T11:26:52.432Z,484
2022-08-18T11:27:40.536Z,493
2022-08-18T11:28:32.661Z,486
2022-08-18T11:29:23.801Z,476
2022-08-18T11:30:15.634Z,457
2022-08-18T11:31:07.548Z,444
2022-08-18T11:32:01.914Z,458
2022-08-18T11:32:52.087Z,475
2022-08-18T11:33:43.178Z,445
2022-08-18T11:34:35.059Z,451
2022-08-18T11:35:27.619Z,441
2022-08-18T11:36:18.792Z,461
2022-08-18T11:37:10.660Z,453
2022-08-18T11:38:02.550Z,441
2022-08-18T11:38:54.421Z,454
2022-08-18T11:39:46.349Z,449
2022-08-18T11:41:09.488Z,466
2022-08-18T11:41:47.859Z,461
2022-08-18T11:42:25.194Z,470
2022-08-18T11:43:13.802Z,477
2022-08-18T11:44:05.612Z,464
2022-08-18T11:44:57.560Z,445
2022-08-18T11:45:49.307Z,433
2022-08-18T11:46:41.293Z,434
2022-08-18T11:47:33.157Z,450
2022-08-18T11:48:35.960Z,463
2022-08-18T11:49:16.905Z,463
2022-08-18T11:50:08.848Z,459
2022-08-18T11:51:00.658Z,450
2022-08-18T11:51:52.576Z,438
2022-08-18T11:52:44.405Z,448
2022-08-18T11:53:36.261Z,444
2022-08-18T11:54:28.163Z,432